Time;durP1;ratioP1;P1;durP2;ratioP2;P2;SDS_P1;SDS_P2;PMS_P1;PMS_P2;Temp;Humidity;BMP_temperature;BMP_pressure;BME280_temperature;BME280_humidity;BME280_pressure;Samples;Min_cycle;Max_cycle;Signal;HPM_P1;HPM_P2
2023/04/19 00:00:15;;;;;;;1.10;1.00;;;;;;;8.98;94.17;95911.88;5073422;28;20136;-68
2023/04/19 00:02:42;;;;;;;1.33;0.95;;;;;;;9.05;94.63;95914.22;5073204;28;20490;-68
2023/04/19 00:05:10;;;;;;;1.88;0.95;;;;;;;9.09;94.67;95908.81;5073344;28;20076;-68
2023/04/19 00:07:37;;;;;;;5.40;1.00;;;;;;;9.12;94.77;95902.59;5073252;28;20049;-68
2023/04/19 00:10:05;;;;;;;1.10;0.73;;;;;;;9.10;94.63;95913.13;5073185;28;20045;-67
2023/04/19 00:12:33;;;;;;;1.10;0.85;;;;;;;9.13;94.04;95903.47;5073192;28;20055;-68
2023/04/19 00:15:01;;;;;;;0.75;0.73;;;;;;;9.13;94.14;95903.47;5073266;28;20510;-69
2023/04/19 00:17:29;;;;;;;1.23;0.90;;;;;;;9.18;94.25;95904.97;5073086;28;20045;-68
2023/04/19 00:19:56;;;;;;;0.98;0.70;;;;;;;9.17;93.50;95903.28;5072977;28;20051;-67
2023/04/19 00:22:23;;;;;;;1.63;1.13;;;;;;;9.19;93.04;95898.84;5072445;28;20052;-67
2023/04/19 00:24:50;;;;;;;1.88;1.10;;;;;;;9.20;93.53;95891.84;5073162;28;20045;-68
2023/04/19 00:27:17;;;;;;;1.33;0.90;;;;;;;9.21;94.01;95890.94;5073111;28;20051;-67
2023/04/19 00:29:45;;;;;;;1.05;0.90;;;;;;;9.25;94.18;95902.09;5073075;28;20135;-67
2023/04/19 00:32:13;;;;;;;2.45;0.80;;;;;;;9.25;93.36;95889.03;5073076;28;20109;-67
2023/04/19 00:34:40;;;;;;;0.82;0.80;;;;;;;9.21;92.99;95888.31;5072904;28;20127;-69
2023/04/19 00:37:08;;;;;;;0.57;0.57;;;;;;;9.13;91.69;95878.22;5073063;28;20049;-68
2023/04/19 00:39:35;;;;;;;0.85;0.55;;;;;;;9.10;90.54;95873.97;5072896;28;20049;-68
2023/04/19 00:42:03;;;;;;;0.50;0.50;;;;;;;9.12;91.21;95886.13;5072824;28;20052;-67
2023/04/19 00:44:30;;;;;;;0.63;0.60;;;;;;;9.09;89.85;95885.34;5072934;28;20452;-67
2023/04/19 00:46:57;;;;;;;0.73;0.73;;;;;;;9.05;90.47;95881.16;5072759;28;20045;-68
2023/04/19 00:49:26;;;;;;;0.50;0.50;;;;;;;8.94;90.46;95883.38;5072868;28;20133;-68
2023/04/19 00:51:54;;;;;;;2.10;0.63;;;;;;;8.90;90.79;95892.22;5072888;28;20044;-68
2023/04/19 00:54:22;;;;;;;0.57;0.57;;;;;;;8.88;90.74;95881.03;5072774;28;20139;-68
2023/04/19 00:56:49;;;;;;;0.50;0.50;;;;;;;8.87;90.93;95880.19;5072773;28;20051;-66
2023/04/19 00:59:17;;;;;;;2.58;0.63;;;;;;;8.85;91.83;95884.59;5072701;28;20128;-68
2023/04/19 01:01:44;;;;;;;3.85;0.60;;;;;;;8.83;92.58;95876.88;5072621;28;20143;-67
2023/04/19 01:04:11;;;;;;;2.58;0.60;;;;;;;8.81;93.06;95877.81;5072629;28;20052;-67
2023/04/19 01:06:41;;;;;;;1.45;0.68;;;;;;;8.77;92.44;95874.50;5072729;28;20044;-67
2023/04/19 01:09:09;;;;;;;1.27;0.60;;;;;;;8.74;92.92;95868.56;5072787;28;20064;-68
2023/04/19 01:11:36;;;;;;;1.00;0.90;;;;;;;8.71;92.87;95872.16;5072590;28;20483;-67
2023/04/19 01:14:03;;;;;;;0.98;0.65;;;;;;;8.71;92.68;95877.34;5072524;28;20048;-67
2023/04/19 01:16:32;;;;;;;2.92;0.73;;;;;;;8.67;93.39;95873.19;5072684;28;20136;-66
2023/04/19 01:18:59;;;;;;;0.75;0.75;;;;;;;8.65;93.08;95873.25;5072697;28;20106;-67
2023/04/19 01:21:28;;;;;;;4.10;1.00;;;;;;;8.68;92.81;95869.66;5072450;28;20049;-67
2023/04/19 01:23:56;;;;;;;1.95;0.80;;;;;;;8.65;93.24;95868.03;5072775;28;20052;-66
2023/04/19 01:26:23;;;;;;;1.63;1.05;;;;;;;8.64;93.54;95868.09;5072549;28;20379;-68
2023/04/19 01:28:50;;;;;;;1.02;0.93;;;;;;;8.63;93.02;95861.16;5072429;28;20049;-67
2023/04/19 01:31:18;;;;;;;0.80;0.80;;;;;;;8.66;93.55;95866.25;5072485;28;20110;-68
2023/04/19 01:33:45;;;;;;;1.17;0.80;;;;;;;8.72;93.69;95863.41;5075444;28;20094;-68
2023/04/19 01:36:13;;;;;;;0.80;0.80;;;;;;;8.68;93.00;95854.88;5075978;28;20041;-69
2023/04/19 01:38:40;;;;;;;1.00;1.00;;;;;;;8.69;93.13;95860.91;5076003;28;20075;-68
2023/04/19 01:41:08;;;;;;;1.60;1.00;;;;;;;8.66;91.97;95863.66;5075843;28;20102;-68
2023/04/19 01:43:35;;;;;;;1.13;1.00;;;;;;;8.66;92.34;95861.03;5075951;28;20048;-67
2023/04/19 01:46:03;;;;;;;5.40;1.45;;;;;;;8.68;93.34;95865.31;5075788;28;20141;-67
2023/04/19 01:48:30;;;;;;;1.42;1.10;;;;;;;8.74;93.08;95864.19;5075644;28;20086;-67
2023/04/19 01:50:57;;;;;;;1.73;1.15;;;;;;;8.74;92.66;95863.34;5075716;28;20075;-67
2023/04/19 01:53:24;;;;;;;0.93;0.93;;;;;;;8.71;93.68;95862.56;5075778;28;20123;-67
2023/04/19 01:55:52;;;;;;;1.38;1.10;;;;;;;8.77;93.52;95858.00;5075822;28;20118;-67
2023/04/19 01:58:20;;;;;;;1.35;1.23;;;;;;;8.75;93.46;95857.19;5075753;28;20056;-67
2023/04/19 02:00:47;;;;;;;2.30;1.30;;;;;;;8.69;92.90;95851.34;5075835;28;20627;-68
2023/04/19 02:03:14;;;;;;;1.40;1.30;;;;;;;8.71;93.13;95854.75;5075632;28;20045;-67
2023/04/19 02:05:41;;;;;;;2.17;1.00;;;;;;;8.79;93.30;95854.41;5075530;28;20044;-68
2023/04/19 02:08:08;;;;;;;1.33;1.23;;;;;;;8.76;93.65;95848.50;5075578;28;20053;-67
2023/04/19 02:10:36;;;;;;;0.98;0.95;;;;;;;8.82;93.44;95854.28;5075459;28;20079;-68
2023/04/19 02:13:03;;;;;;;0.90;0.90;;;;;;;8.84;92.31;95849.84;5075456;28;20049;-67
2023/04/19 02:15:32;;;;;;;1.25;1.15;;;;;;;8.84;92.36;95849.00;5075473;28;20044;-67
2023/04/19 02:17:59;;;;;;;0.98;0.95;;;;;;;8.82;92.35;95851.69;5075555;28;20049;-68
2023/04/19 02:20:26;;;;;;;0.85;0.85;;;;;;;8.89;91.35;95852.28;5075260;28;20466;-67
2023/04/19 02:22:54;;;;;;;1.20;1.10;;;;;;;8.91;91.51;95844.38;5075161;28;20433;-67
2023/04/19 02:25:21;;;;;;;0.80;0.80;;;;;;;8.81;91.01;95842.16;5075430;28;20052;-68
2023/04/19 02:27:49;;;;;;;2.50;0.90;;;;;;;8.83;91.05;95845.56;5075200;28;20044;-67
2023/04/19 02:30:17;;;;;;;1.27;1.08;;;;;;;8.81;90.74;95849.13;5075133;28;20044;-66
2023/04/19 02:32:48;;;;;;;1.35;1.25;;;;;;;8.85;91.14;95837.66;5074991;28;20044;-67
2023/04/19 02:35:15;;;;;;;;;;;;;;;8.89;91.35;95841.84;5075412;28;20047;-68
2023/04/19 02:37:43;;;;;;;1.30;1.20;;;;;;;8.89;90.70;95843.59;5074891;28;19920;-67
2023/04/19 02:40:10;;;;;;;0.80;0.80;;;;;;;8.94;91.21;95839.88;5074739;28;20074;-67
2023/04/19 02:42:37;;;;;;;2.35;1.30;;;;;;;8.90;90.74;95834.84;5075075;28;20177;-67
2023/04/19 02:45:05;;;;;;;1.58;1.25;;;;;;;8.94;91.06;95845.09;5073845;28;20045;-68
2023/04/19 02:47:33;;;;;;;0.90;0.90;;;;;;;8.95;90.48;95836.38;5074494;28;20056;-68
2023/04/19 02:50:02;;;;;;;0.85;0.85;;;;;;;8.95;91.31;95832.91;5074657;28;20048;-67
2023/04/19 02:52:29;;;;;;;0.98;0.98;;;;;;;8.97;91.34;95831.91;5074566;28;20131;-68
2023/04/19 02:54:56;;;;;;;3.05;1.02;;;;;;;9.02;90.17;95830.88;5074504;28;20044;-67
2023/04/19 02:57:23;;;;;;;1.30;0.95;;;;;;;9.04;90.36;95831.66;5074582;28;20123;-67
2023/04/19 02:59:50;;;;;;;0.95;0.95;;;;;;;9.05;91.14;95834.22;5074549;28;20048;-68
2023/04/19 03:02:18;;;;;;;1.35;1.00;;;;;;;9.03;90.25;95836.03;5074378;28;20135;-67
2023/04/19 03:04:46;;;;;;;1.45;1.10;;;;;;;9.07;90.13;95834.13;5074381;28;20071;-67
2023/04/19 03:07:15;;;;;;;0.85;0.85;;;;;;;9.05;89.33;95842.03;5074417;28;20055;-67
2023/04/19 03:09:43;;;;;;;0.90;0.90;;;;;;;9.02;90.61;95839.56;5074317;28;20055;-68
2023/04/19 03:12:10;;;;;;;1.23;1.13;;;;;;;9.05;90.57;95835.97;5074298;28;20048;-67
2023/04/19 03:14:38;;;;;;;0.90;0.90;;;;;;;8.98;90.76;95831.00;5074176;28;20098;-67
2023/04/19 03:17:05;;;;;;;1.20;1.10;;;;;;;8.95;90.61;95833.75;5074120;28;20486;-68
2023/04/19 03:19:33;;;;;;;1.42;1.10;;;;;;;8.92;90.97;95827.81;5074184;28;20460;-67
2023/04/19 03:22:00;;;;;;;1.25;1.05;;;;;;;8.98;90.84;95831.00;5074060;28;20088;-68
2023/04/19 03:24:31;;;;;;;1.10;1.02;;;;;;;8.96;89.93;95837.19;5074051;28;20040;-68
2023/04/19 03:26:58;;;;;;;0.90;0.90;;;;;;;8.99;90.69;95839.69;5073949;28;20051;-67
2023/04/19 03:29:26;;;;;;;2.35;1.10;;;;;;;9.01;91.11;95839.63;5073925;28;20410;-68
2023/04/19 03:31:53;;;;;;;1.77;1.55;;;;;;;8.97;90.78;95839.75;5073800;28;20083;-68
2023/04/19 03:34:20;;;;;;;1.05;0.95;;;;;;;9.00;90.29;95828.31;5073895;28;20050;-68
2023/04/19 03:36:47;;;;;;;0.82;0.82;;;;;;;9.07;90.16;95836.75;5073704;28;20044;-68
2023/04/19 03:39:14;;;;;;;0.77;0.77;;;;;;;9.08;89.81;95830.59;5073685;28;20055;-68
2023/04/19 03:41:43;;;;;;;0.93;0.80;;;;;;;9.06;91.13;95842.88;5073672;28;20048;-67
2023/04/19 03:44:10;;;;;;;1.33;0.90;;;;;;;9.12;91.04;95841.78;5073642;28;20049;-67
2023/04/19 03:46:37;;;;;;;8.30;1.02;;;;;;;9.15;90.31;95836.41;5073519;28;20131;-67
2023/04/19 03:49:05;;;;;;;2.35;2.15;;;;;;;9.08;90.14;95839.28;5073725;28;20079;-67
2023/04/19 03:51:32;;;;;;;1.90;1.20;;;;;;;9.12;90.22;95842.59;5073460;28;20044;-67
2023/04/19 03:53:59;;;;;;;1.10;1.00;;;;;;;9.10;89.04;95839.22;5073522;28;20048;-67
2023/04/19 03:56:26;;;;;;;3.00;1.05;;;;;;;9.17;90.04;95845.88;5073243;28;20401;-67
2023/04/19 03:58:56;;;;;;;1.35;1.00;;;;;;;9.22;89.78;95845.69;5073394;28;20140;-67
2023/04/19 04:01:23;;;;;;;1.52;1.42;;;;;;;9.25;90.08;95847.28;5073296;28;20084;-68
2023/04/19 04:03:51;;;;;;;2.20;1.50;;;;;;;9.28;90.06;95849.78;5073298;28;20056;-67
2023/04/19 04:06:18;;;;;;;0.98;0.90;;;;;;;9.33;89.93;95850.44;5073316;28;20048;-67
2023/04/19 04:08:46;;;;;;;3.25;1.10;;;;;;;9.36;90.59;95852.88;5073412;28;20119;-67
2023/04/19 04:11:14;;;;;;;2.42;1.42;;;;;;;9.36;89.58;95847.66;5073450;28;20553;-67
2023/04/19 04:13:42;;;;;;;1.23;1.13;;;;;;;9.35;90.03;95854.66;5073414;28;20052;-67
2023/04/19 04:16:10;;;;;;;1.92;1.10;;;;;;;9.30;89.97;95850.56;5073113;28;20494;-68
2023/04/19 04:18:38;;;;;;;1.20;1.05;;;;;;;9.34;90.27;95852.94;5073446;28;20044;-68
2023/04/19 04:21:06;;;;;;;3.05;1.00;;;;;;;9.39;89.84;95852.75;5073092;28;20103;-68
2023/04/19 04:23:34;;;;;;;1.33;1.05;;;;;;;9.43;89.97;95845.63;5073030;28;20131;-67
2023/04/19 04:26:03;;;;;;;2.40;0.90;;;;;;;9.40;89.67;95841.41;5073119;28;20056;-67
2023/04/19 04:28:31;;;;;;;1.13;1.02;;;;;;;9.44;90.13;95852.53;5073051;28;20398;-67
2023/04/19 04:30:59;;;;;;;3.30;1.00;;;;;;;9.44;89.69;95845.56;5072985;28;20088;-68
2023/04/19 04:33:29;;;;;;;1.33;1.08;;;;;;;9.44;90.09;95847.31;5073125;28;20070;-67
2023/04/19 04:35:57;;;;;;;1.42;1.23;;;;;;;9.42;90.39;95851.78;5072992;28;20041;-68
2023/04/19 04:38:25;;;;;;;1.20;1.10;;;;;;;9.47;90.35;95852.41;5072935;28;20509;-68
2023/04/19 04:40:53;;;;;;;2.60;1.00;;;;;;;9.41;89.31;95856.16;5072973;28;20048;-68
2023/04/19 04:43:21;;;;;;;0.98;0.90;;;;;;;9.32;87.97;95853.94;5073162;28;20078;-67
2023/04/19 04:45:48;;;;;;;2.45;0.98;;;;;;;9.33;89.03;95850.44;5072965;28;20049;-67
2023/04/19 04:48:16;;;;;;;1.23;1.13;;;;;;;9.40;89.87;95857.06;5072637;28;20151;-68
2023/04/19 04:50:45;;;;;;;0.90;0.90;;;;;;;9.43;89.97;95856.09;5072991;28;20486;-67
2023/04/19 04:53:12;;;;;;;3.65;1.92;;;;;;;9.44;89.34;95855.16;5072737;28;20052;-67
2023/04/19 04:55:39;;;;;;;8.63;4.65;;;;;;;9.45;86.93;95857.69;5073030;28;20482;-67
2023/04/19 04:58:07;;;;;;;2.40;1.30;;;;;;;9.46;87.74;95863.78;5072800;28;20060;-68
2023/04/19 05:00:34;;;;;;;2.08;1.30;;;;;;;9.35;87.67;95872.06;5072735;28;20045;-68
2023/04/19 05:03:02;;;;;;;14.63;7.68;;;;;;;9.33;87.05;95858.25;5072594;28;20560;-67
2023/04/19 05:05:30;;;;;;;1.88;1.52;;;;;;;9.31;87.64;95871.38;5072679;28;20571;-68
2023/04/19 05:07:59;;;;;;;1.10;1.00;;;;;;;9.33;88.33;95866.91;5074673;28;20049;-67
2023/04/19 05:10:27;;;;;;;1.30;1.15;;;;;;;9.32;88.20;95862.63;5076762;28;20486;-68
2023/04/19 05:12:54;;;;;;;1.25;1.10;;;;;;;9.33;88.62;95874.75;5076604;28;20106;-67
2023/04/19 05:15:22;;;;;;;1.30;1.20;;;;;;;9.35;89.18;95865.09;5076478;28;20110;-68
2023/04/19 05:17:49;;;;;;;3.10;1.17;;;;;;;9.37;88.53;95864.19;5076394;28;20135;-67
2023/04/19 05:20:17;;;;;;;1.30;1.20;;;;;;;9.37;88.58;95865.03;5076360;28;20080;-67
2023/04/19 05:22:45;;;;;;;1.38;1.27;;;;;;;9.27;88.26;95867.19;5076298;28;20048;-68
2023/04/19 05:25:13;;;;;;;1.27;1.17;;;;;;;9.34;88.32;95862.56;5076273;28;20049;-67
2023/04/19 05:27:41;;;;;;;0.98;0.82;;;;;;;9.39;88.29;95862.34;5076270;28;20049;-67
2023/04/19 05:30:09;;;;;;;1.10;1.00;;;;;;;9.47;88.83;95861.09;5076286;28;20044;-67
2023/04/19 05:32:36;;;;;;;1.63;1.30;;;;;;;9.55;88.20;95863.38;5076140;28;20490;-67
2023/04/19 05:35:03;;;;;;;0.90;0.90;;;;;;;9.53;87.40;95866.94;5076008;28;20414;-68
2023/04/19 05:37:30;;;;;;;1.73;1.00;;;;;;;9.47;87.07;95863.72;5076064;28;20053;-67
2023/04/19 05:39:58;;;;;;;0.82;0.82;;;;;;;9.54;88.30;95872.09;5075999;28;20044;-67
2023/04/19 05:42:26;;;;;;;1.55;1.15;;;;;;;9.58;88.06;95873.66;5075925;28;20060;-68
2023/04/19 05:44:54;;;;;;;0.80;0.80;;;;;;;9.59;87.55;95869.28;5076043;28;20127;-68
2023/04/19 05:47:21;;;;;;;0.88;0.88;;;;;;;9.64;88.38;95863.88;5075653;28;20135;-68
2023/04/19 05:49:47;;;;;;;1.02;1.00;;;;;;;9.66;87.74;95862.03;5075793;28;20756;-68
2023/04/19 05:52:15;;;;;;;3.72;1.00;;;;;;;9.73;88.47;95859.06;5075865;28;20478;-68
2023/04/19 05:54:43;;;;;;;3.20;0.93;;;;;;;9.74;86.02;95859.91;5075809;28;20147;-67
2023/04/19 05:57:10;;;;;;;0.90;0.90;;;;;;;9.78;85.94;95860.63;5075733;28;20049;-67
2023/04/19 05:59:38;;;;;;;1.40;1.00;;;;;;;9.83;86.19;95851.66;5075667;28;20103;-67
2023/04/19 06:02:06;;;;;;;1.27;1.17;;;;;;;9.94;87.67;95856.38;5075682;28;20044;-68
2023/04/19 06:04:34;;;;;;;1.23;1.13;;;;;;;9.96;87.73;95861.53;5075840;28;20066;-68
2023/04/19 06:07:02;;;;;;;1.60;1.20;;;;;;;9.97;85.41;95860.63;5075707;28;20048;-69
2023/04/19 06:09:29;;;;;;;0.75;0.75;;;;;;;10.07;84.87;95858.44;5075594;28;20041;-68
2023/04/19 06:11:56;;;;;;;2.35;1.38;;;;;;;10.13;84.16;95860.75;5075524;28;20048;-68
2023/04/19 06:14:24;;;;;;;1.20;1.10;;;;;;;10.18;84.42;95860.53;5075597;28;20047;-69
2023/04/19 06:16:53;;;;;;;2.33;1.05;;;;;;;10.22;84.30;95868.16;5075337;28;20497;-68
2023/04/19 06:19:20;;;;;;;3.33;0.90;;;;;;;10.29;84.04;95860.88;5075250;28;20429;-68
2023/04/19 06:21:48;;;;;;;1.52;1.08;;;;;;;10.29;82.56;95870.50;5075306;28;20052;-69
2023/04/19 06:24:19;;;;;;;1.58;1.27;;;;;;;10.41;84.11;95871.69;5075158;28;20080;-68
2023/04/19 06:26:48;;;;;;;3.33;1.65;;;;;;;10.46;84.13;95875.78;5075164;28;20051;-68
2023/04/19 06:29:15;;;;;;;2.88;1.50;;;;;;;10.51;85.38;95870.34;5075000;28;20131;-69
2023/04/19 06:31:42;;;;;;;1.40;1.30;;;;;;;10.57;84.90;95871.81;5075109;28;20053;-69
2023/04/19 06:34:11;;;;;;;2.03;1.10;;;;;;;10.63;84.79;95875.88;5075060;28;20074;-69
2023/04/19 06:36:38;;;;;;;1.42;0.93;;;;;;;10.71;83.38;95877.22;5074986;28;20044;-68
2023/04/19 06:39:05;;;;;;;3.92;0.98;;;;;;;10.74;83.72;95882.28;5074918;28;20383;-68
2023/04/19 06:41:33;;;;;;;1.30;1.13;;;;;;;10.83;81.37;95886.22;5074928;28;20063;-68
2023/04/19 06:44:00;;;;;;;0.90;0.90;;;;;;;10.97;81.74;95889.91;5074819;28;20048;-68
2023/04/19 06:46:27;;;;;;;0.93;0.93;;;;;;;11.21;82.40;95889.59;5074811;28;20041;-69
2023/04/19 06:48:54;;;;;;;7.45;1.13;;;;;;;11.39;81.69;95890.44;5074644;28;20056;-69
2023/04/19 06:51:23;;;;;;;1.20;0.90;;;;;;;11.57;79.25;95886.00;5074802;28;20056;-68
2023/04/19 06:53:51;;;;;;;1.25;0.90;;;;;;;11.74;79.72;95889.53;5074685;28;20048;-69
2023/04/19 06:56:18;;;;;;;4.03;0.90;;;;;;;11.85;76.65;95892.41;5074590;28;20045;-69
2023/04/19 06:58:45;;;;;;;1.10;1.00;;;;;;;11.90;76.15;95889.53;5074608;28;20040;-67
2023/04/19 07:01:12;;;;;;;1.10;1.00;;;;;;;12.02;76.11;95885.41;5074460;28;20055;-68
2023/04/19 07:03:39;;;;;;;1.38;0.90;;;;;;;12.00;75.04;95885.50;5074365;28;20494;-69
2023/04/19 07:06:07;;;;;;;2.72;1.08;;;;;;;12.12;76.49;95894.50;5074275;28;20557;-69
2023/04/19 07:08:35;;;;;;;3.45;1.02;;;;;;;12.13;77.92;95893.56;5074329;28;20490;-69
2023/04/19 07:11:02;;;;;;;3.25;1.10;;;;;;;12.21;78.17;95895.75;5074583;28;20519;-69
2023/04/19 07:13:30;;;;;;;1.27;1.05;;;;;;;12.28;76.50;95903.31;5074299;28;20059;-69
2023/04/19 07:15:58;;;;;;;3.25;1.10;;;;;;;12.26;76.01;95895.53;5074233;28;20053;-68
2023/04/19 07:18:25;;;;;;;0.80;0.80;;;;;;;12.22;74.79;95897.44;5074105;28;20135;-69
2023/04/19 07:20:53;;;;;;;2.28;1.10;;;;;;;12.20;74.25;95906.34;5074162;28;20105;-68
2023/04/19 07:23:20;;;;;;;1.33;0.90;;;;;;;12.10;73.49;95906.84;5073963;28;20048;-68
2023/04/19 07:25:49;;;;;;;1.58;0.88;;;;;;;12.08;72.80;95902.59;5074220;28;20486;-68
2023/04/19 07:28:16;;;;;;;0.93;0.80;;;;;;;12.06;73.23;95913.16;5074139;28;20048;-68
2023/04/19 07:30:44;;;;;;;0.80;0.80;;;;;;;11.96;72.93;95925.06;5073384;28;20055;-68
2023/04/19 07:33:11;;;;;;;0.70;0.70;;;;;;;11.93;74.13;95920.81;5073789;28;20110;-69
2023/04/19 07:35:39;;;;;;;0.80;0.70;;;;;;;11.99;73.31;95925.75;5073904;28;20084;-69
2023/04/19 07:38:07;;;;;;;1.50;1.10;;;;;;;11.96;72.52;95925.06;5073800;28;20106;-68
2023/04/19 07:40:34;;;;;;;0.90;0.90;;;;;;;11.94;73.13;95934.75;5073704;28;20083;-68
2023/04/19 07:43:03;;;;;;;1.38;0.90;;;;;;;11.85;73.89;95933.47;5073538;28;20049;-68
2023/04/19 07:45:31;;;;;;;1.00;0.93;;;;;;;11.85;73.98;95930.84;5073685;28;20044;-69
2023/04/19 07:47:59;;;;;;;2.10;1.10;;;;;;;11.83;72.75;95940.59;5073435;28;20049;-68
2023/04/19 07:50:26;;;;;;;3.72;0.90;;;;;;;11.87;74.33;95939.50;5073501;28;20465;-68
2023/04/19 07:52:55;;;;;;;1.13;0.90;;;;;;;11.87;75.07;95942.94;5073562;28;20103;-68
2023/04/19 07:55:23;;;;;;;0.82;0.82;;;;;;;11.93;74.86;95948.81;5073673;28;20097;-69
2023/04/19 07:57:50;;;;;;;0.98;0.90;;;;;;;11.96;75.24;95944.25;5073476;28;20048;-69
2023/04/19 08:00:24;;;;;;;6.05;1.30;;;;;;;12.01;74.87;95946.59;5073340;28;20041;-68
2023/04/19 08:02:51;;;;;;;1.77;1.55;;;;;;;11.99;72.63;95948.47;5073324;28;20155;-68
2023/04/19 08:05:19;;;;;;;2.00;1.48;;;;;;;11.84;72.69;95951.00;5073357;28;20052;-68
2023/04/19 08:07:47;;;;;;;2.55;0.90;;;;;;;11.83;71.61;95951.91;5073392;28;20435;-68
2023/04/19 08:10:15;;;;;;;1.63;0.80;;;;;;;11.93;71.92;95949.66;5073244;28;20074;-69
2023/04/19 08:12:42;;;;;;;1.38;0.80;;;;;;;11.99;72.76;95954.56;5073357;28;20150;-68
2023/04/19 08:15:10;;;;;;;1.17;1.02;;;;;;;12.06;74.55;95952.47;5073502;28;20055;-68
2023/04/19 08:17:42;;;;;;;2.58;1.08;;;;;;;12.05;72.54;95956.03;5073134;28;20524;-68
2023/04/19 08:20:12;;;;;;;3.45;1.10;;;;;;;11.98;71.65;95955.47;5073211;28;20049;-69
2023/04/19 08:22:40;;;;;;;0.70;0.70;;;;;;;11.98;71.18;95952.03;5073157;28;20055;-69
2023/04/19 08:25:09;;;;;;;3.15;0.65;;;;;;;11.92;70.29;95960.22;5073072;28;20057;-68
2023/04/19 08:27:36;;;;;;;1.48;0.77;;;;;;;11.91;70.41;95954.13;5072821;28;20135;-68
2023/04/19 08:30:06;;;;;;;2.22;0.70;;;;;;;11.87;71.89;95953.41;5072992;28;20072;-68
2023/04/19 08:32:33;;;;;;;1.23;0.60;;;;;;;12.01;72.73;95959.72;5073106;28;20223;-68
2023/04/19 08:35:03;;;;;;;0.75;0.75;;;;;;;12.00;73.24;95960.66;5072937;28;20675;-68
2023/04/19 08:37:30;;;;;;;2.17;0.80;;;;;;;11.93;73.31;95967.16;5072924;28;20079;-68
2023/04/19 08:39:57;;;;;;;1.05;0.90;;;;;;;11.74;69.43;95952.41;5072979;28;20046;-68
2023/04/19 08:42:24;;;;;;;1.80;0.70;;;;;;;11.72;71.76;95965.56;5074183;28;20127;-68
2023/04/19 08:44:56;;;;;;;1.75;0.88;;;;;;;11.73;71.15;95964.66;5077023;28;20131;-68
2023/04/19 08:47:25;;;;;;;0.75;0.75;;;;;;;11.72;71.30;95962.97;5076636;28;20054;-68
2023/04/19 08:49:55;;;;;;;0.90;0.80;;;;;;;11.62;72.77;95962.56;5077180;28;20079;-68
2023/04/19 08:52:27;;;;;;;;;;;;;;;11.63;73.35;95966.88;5077359;28;20053;-68
2023/04/19 08:54:55;;;;;;;0.80;0.80;;;;;;;11.66;72.10;95967.66;5076896;28;19970;-68
2023/04/19 08:57:22;;;;;;;2.08;0.88;;;;;;;11.76;72.79;95968.88;5077108;28;20093;-69
2023/04/19 08:59:54;;;;;;;0.80;0.80;;;;;;;11.86;73.94;95961.41;5077013;28;20501;-68
2023/04/19 09:02:22;;;;;;;1.23;0.82;;;;;;;11.87;72.81;95968.31;5076708;28;20137;-68
2023/04/19 09:04:49;;;;;;;2.45;0.70;;;;;;;11.95;71.38;95971.38;5076465;28;20055;-68
2023/04/19 09:07:25;;;;;;;3.58;1.10;;;;;;;11.96;71.28;95967.00;5076779;28;20048;-68
2023/04/19 09:10:06;;;;;;;1.35;1.20;;;;;;;11.95;71.59;95975.78;5076556;28;20073;-68
2023/04/19 09:12:34;;;;;;;3.33;0.90;;;;;;;11.96;72.02;95974.84;5076625;28;20050;-68
2023/04/19 09:15:07;;;;;;;2.40;1.08;;;;;;;11.99;71.58;95972.06;5076424;28;20045;-68
2023/04/19 09:17:35;;;;;;;1.10;1.00;;;;;;;11.91;70.38;95976.84;5076334;28;20512;-68
2023/04/19 09:20:04;;;;;;;3.65;1.20;;;;;;;11.92;70.96;95979.38;5076402;28;20114;-68
2023/04/19 09:22:35;;;;;;;1.02;1.00;;;;;;;11.99;72.61;95977.31;5076379;28;20044;-68
2023/04/19 09:25:01;;;;;;;;;;;;;;;11.97;72.04;95974.78;5076732;28;20051;-67
2023/04/19 09:27:32;;;;;;;1.80;1.10;;;;;;;11.86;71.73;95969.25;5076219;28;19920;-68
2023/04/19 09:30:01;;;;;;;1.10;1.00;;;;;;;11.79;71.87;95973.94;5076176;28;20094;-68
2023/04/19 09:32:28;;;;;;;1.90;0.80;;;;;;;11.73;72.89;95980.38;5076200;28;20375;-67
2023/04/19 09:34:58;;;;;;;3.50;1.38;;;;;;;11.61;72.34;95980.97;5076098;28;20041;-68
2023/04/19 09:37:27;;;;;;;1.10;1.00;;;;;;;11.62;73.03;95983.53;5075959;28;20044;-68
2023/04/19 09:39:55;;;;;;;1.70;1.40;;;;;;;11.68;72.67;95979.75;5076036;28;20047;-68
2023/04/19 09:42:23;;;;;;;1.40;0.73;;;;;;;11.66;72.55;95981.59;5076009;28;20135;-67
2023/04/19 09:44:57;;;;;;;3.03;1.00;;;;;;;11.65;74.00;95977.28;5075913;28;20056;-68
2023/04/19 09:47:25;;;;;;;2.00;0.90;;;;;;;11.74;74.93;95979.44;5075717;28;20080;-68
2023/04/19 09:50:07;;;;;;;1.95;0.90;;;;;;;11.74;72.38;95973.34;5075835;28;20490;-69
2023/04/19 09:52:34;;;;;;;0.90;0.80;;;;;;;11.70;71.58;95969.19;5075581;28;20044;-68
2023/04/19 09:55:05;;;;;;;1.00;0.70;;;;;;;11.77;72.78;95967.09;5075593;28;20051;-68
2023/04/19 09:57:33;;;;;;;2.75;1.10;;;;;;;11.88;71.83;95972.63;5075844;28;20052;-67
2023/04/19 10:00:05;;;;;;;1.42;1.27;;;;;;;11.90;68.99;95970.78;5075684;28;20052;-68
2023/04/19 10:02:33;;;;;;;3.05;2.10;;;;;;;11.99;69.44;95956.34;5075582;28;20044;-67
2023/04/19 10:05:00;;;;;;;8.07;2.10;;;;;;;12.09;69.32;95957.56;5075488;28;20059;-68
2023/04/19 10:07:28;;;;;;;8.30;2.40;;;;;;;12.27;67.75;95952.25;5075454;28;20490;-67
2023/04/19 10:09:57;;;;;;;6.03;2.35;;;;;;;12.50;66.15;95947.53;5075620;28;20107;-68
2023/04/19 10:12:27;;;;;;;6.30;2.17;;;;;;;12.70;66.91;95951.66;5075645;28;20457;-68
2023/04/19 10:14:57;;;;;;;12.60;2.78;;;;;;;12.91;66.21;95946.13;5075509;28;20497;-67
2023/04/19 10:17:24;;;;;;;8.65;2.70;;;;;;;13.12;64.25;95944.06;5075431;28;20101;-68
2023/04/19 10:19:58;;;;;;;6.45;2.60;;;;;;;13.16;61.33;95954.41;5075382;28;20611;-68
2023/04/19 10:22:26;;;;;;;3.58;3.05;;;;;;;13.01;61.50;95941.22;5075302;28;20088;-67
2023/04/19 10:25:10;;;;;;;5.35;3.30;;;;;;;12.93;63.79;95944.28;5075197;28;20052;-67
2023/04/19 10:27:40;;;;;;;4.50;3.03;;;;;;;13.02;65.48;95941.13;5075299;28;20044;-68
2023/04/19 10:30:17;;;;;;;8.48;3.80;;;;;;;13.19;60.57;95939.31;5075052;28;20048;-68
2023/04/19 10:32:55;;;;;;;6.18;3.53;;;;;;;13.14;61.15;95943.97;5075060;28;20040;-68
2023/04/19 10:35:23;;;;;;;10.07;3.35;;;;;;;13.10;59.18;95951.19;5074957;28;20493;-68
2023/04/19 10:38:05;;;;;;;8.90;3.58;;;;;;;12.91;61.61;95930.38;5074950;28;20094;-68
2023/04/19 10:40:55;;;;;;;5.53;2.92;;;;;;;12.85;61.07;95931.59;5073686;28;20056;-67
2023/04/19 10:43:24;;;;;;;7.27;3.93;;;;;;;12.85;60.22;95928.09;5074914;28;20054;-68
2023/04/19 10:45:52;;;;;;;6.40;3.10;;;;;;;12.87;61.13;95928.88;5074734;28;20106;-68
2023/04/19 10:48:40;;;;;;;12.57;3.60;;;;;;;12.89;60.70;95930.47;5074609;28;20121;-67
2023/04/19 10:51:18;;;;;;;7.00;3.20;;;;;;;12.90;60.56;95931.34;5074640;28;20055;-68
2023/04/19 10:53:47;;;;;;;3.08;2.67;;;;;;;13.00;60.83;95934.25;5074634;28;20045;-66
2023/04/19 10:56:15;;;;;;;5.97;3.47;;;;;;;13.02;60.50;95943.75;5074700;28;20102;-67
2023/04/19 10:59:23;;;;;;;8.82;3.42;;;;;;;13.18;61.49;95936.78;5074498;28;20498;-68
2023/04/19 11:01:53;;;;;;;4.50;3.00;;;;;;;13.29;59.15;95950.13;5074507;28;20192;-67
2023/04/19 11:04:25;;;;;;;5.88;2.97;;;;;;;13.28;58.94;95937.94;5073989;28;20163;-66
2023/04/19 11:07:07;;;;;;;7.53;3.38;;;;;;;13.26;58.38;95942.41;5074155;28;20076;-67
2023/04/19 11:09:37;;;;;;;6.07;3.50;;;;;;;13.36;57.09;95942.72;5074286;28;20051;-67
2023/04/19 11:12:07;;;;;;;3.13;2.83;;;;;;;13.32;57.52;95943.84;5074268;28;20049;-68
2023/04/19 11:14:37;;;;;;;7.30;4.03;;;;;;;13.27;58.57;95933.59;5074511;28;20478;-67
2023/04/19 11:17:17;;;;;;;7.53;3.88;;;;;;;13.24;58.78;95941.66;5074219;28;20352;-67
2023/04/19 11:19:46;;;;;;;6.15;3.60;;;;;;;13.14;60.37;95944.84;5074058;28;20040;-68
2023/04/19 11:22:13;;;;;;;5.43;3.55;;;;;;;13.21;58.32;95942.69;5074106;28;20124;-68
2023/04/19 11:24:47;;;;;;;10.38;3.53;;;;;;;13.29;59.31;95936.13;5073990;28;20102;-67
2023/04/19 11:27:14;;;;;;;7.22;3.40;;;;;;;13.43;59.47;95932.72;5074128;28;20123;-67
2023/04/19 11:29:43;;;;;;;5.40;3.70;;;;;;;13.56;59.33;95931.06;5073888;28;20090;-67
2023/04/19 11:32:10;;;;;;;7.03;3.75;;;;;;;13.71;58.52;95934.56;5073873;28;20472;-67
2023/04/19 11:34:39;;;;;;;5.65;3.40;;;;;;;13.71;56.41;95941.59;5073820;28;20432;-67
2023/04/19 11:37:07;;;;;;;5.93;3.38;;;;;;;13.68;56.62;95933.88;5073831;28;20139;-68
2023/04/19 11:39:34;;;;;;;7.07;3.47;;;;;;;13.63;56.86;95936.78;5073900;28;20448;-68
2023/04/19 11:42:02;;;;;;;7.68;3.58;;;;;;;13.77;57.85;95934.19;5073776;28;20048;-68
2023/04/19 11:44:29;;;;;;;10.45;3.72;;;;;;;13.90;61.52;95926.41;5073655;28;20044;-66